createdAt,value
2018-11-21T00:02:24.450Z,84.50
2018-11-21T00:04:54.126Z,84.07
2018-11-21T00:07:23.800Z,84.00
2018-11-21T00:09:53.849Z,84.62
2018-11-21T00:12:23.570Z,83.77
2018-11-21T00:14:53.283Z,84.38
2018-11-21T00:17:23.196Z,84.40
2018-11-21T00:19:52.881Z,84.24
2018-11-21T00:22:22.810Z,84.02
2018-11-21T00:24:52.493Z,83.82
2018-11-21T00:27:22.159Z,83.62
2018-11-21T00:29:51.931Z,84.16
2018-11-21T00:32:22.859Z,83.69
2018-11-21T00:34:53.502Z,83.62
2018-11-21T00:37:23.838Z,83.06
2018-11-21T00:39:54.182Z,82.78
2018-11-21T00:42:23.845Z,83.76
2018-11-21T00:44:53.561Z,84.30
2018-11-21T00:47:23.233Z,84.89
2018-11-21T00:49:53.188Z,84.64
2018-11-21T00:52:23.138Z,84.85
2018-11-21T00:54:52.825Z,84.54
2018-11-21T00:57:24.219Z,84.52
2018-11-21T00:59:54.105Z,84.62
2018-11-21T01:02:23.780Z,83.86
2018-11-21T01:04:53.542Z,83.81
2018-11-21T01:07:23.485Z,83.26
2018-11-21T01:09:53.533Z,82.65
2018-11-21T01:12:23.227Z,82.40
2018-11-21T01:14:52.963Z,83.72
2018-11-21T01:17:23.213Z,83.86
2018-11-21T01:19:53.421Z,84.37
2018-11-21T01:22:23.094Z,85.38
2018-11-21T01:24:53.049Z,85.98
2018-11-21T01:27:22.753Z,86.74
2018-11-21T01:29:52.441Z,86.78
2018-11-21T01:32:22.604Z,87.10
2018-11-21T01:34:52.239Z,87.31
2018-11-21T01:37:21.914Z,86.98
2018-11-21T01:39:51.574Z,86.97
2018-11-21T01:42:21.237Z,86.99
2018-11-21T01:44:50.910Z,87.17
2018-11-21T01:47:21.674Z,87.25
2018-11-21T01:49:51.570Z,86.90
2018-11-21T01:52:21.279Z,87.26
2018-11-21T01:54:50.969Z,87.48
2018-11-21T01:57:20.662Z,87.48
2018-11-21T01:59:50.355Z,87.50
2018-11-21T02:02:20.040Z,87.66
2018-11-21T02:04:49.694Z,87.82
2018-11-21T02:07:20.132Z,87.91
2018-11-21T02:09:50.032Z,88.24
2018-11-21T02:12:19.699Z,88.17
2018-11-21T02:14:49.376Z,88.30
2018-11-21T02:17:19.060Z,88.08
2018-11-21T02:19:49.014Z,87.92
2018-11-21T02:22:19.168Z,87.40
2018-11-21T02:24:49.138Z,87.21
2018-11-21T02:27:19.587Z,86.58
2018-11-21T02:29:49.569Z,86.73
2018-11-21T02:32:19.300Z,87.02
2018-11-21T02:34:48.959Z,87.09
2018-11-21T02:37:18.630Z,86.88
2018-11-21T02:39:48.559Z,86.60
2018-11-21T02:42:18.233Z,86.65
2018-11-21T02:44:48.130Z,86.46
2018-11-21T02:47:17.801Z,86.12
2018-11-21T02:49:47.736Z,84.48
2018-11-21T02:52:17.470Z,83.70
2018-11-21T02:54:47.475Z,82.24
2018-11-21T02:57:18.780Z,83.27
2018-11-21T02:59:50.065Z,83.35
2018-11-21T03:02:20.112Z,84.20
2018-11-21T03:04:49.758Z,84.24
2018-11-21T03:07:19.731Z,84.18
2018-11-21T03:09:49.416Z,83.94
2018-11-21T03:12:19.576Z,83.75
2018-11-21T03:14:49.666Z,83.84
2018-11-21T03:17:19.637Z,84.18
2018-11-21T03:19:50.399Z,84.47
2018-11-21T03:22:20.583Z,85.21
2018-11-21T03:24:50.658Z,85.78
2018-11-21T03:27:20.569Z,86.20
2018-11-21T03:29:50.311Z,86.36
2018-11-21T03:32:19.962Z,86.65
2018-11-21T03:34:50.859Z,86.11
2018-11-21T03:37:20.508Z,86.17
2018-11-21T03:39:50.199Z,85.43
2018-11-21T03:42:19.907Z,84.25
2018-11-21T03:44:49.867Z,84.18
2018-11-21T03:47:20.544Z,83.86
2018-11-21T03:49:49.526Z,84.26
2018-11-21T03:52:19.475Z,84.18
2018-11-21T03:54:49.189Z,84.33
2018-11-21T03:57:19.125Z,84.38
2018-11-21T03:59:49.032Z,84.25
2018-11-21T04:02:18.683Z,83.74
2018-11-21T04:04:48.642Z,83.37
2018-11-21T04:07:18.365Z,83.46
2018-11-21T04:09:48.277Z,83.42
2018-11-21T04:12:17.966Z,83.22
2018-11-21T04:14:47.650Z,83.57
2018-11-21T04:17:17.306Z,83.91
2018-11-21T04:19:47.218Z,83.27
2018-11-21T04:22:17.126Z,83.52
2018-11-21T04:24:47.076Z,83.74
2018-11-21T04:27:16.975Z,84.18
2018-11-21T04:29:46.941Z,84.48
2018-11-21T04:32:16.618Z,84.46
2018-11-21T04:34:46.331Z,84.65
2018-11-21T04:37:16.276Z,85.02
2018-11-21T04:39:45.957Z,84.65
2018-11-21T04:42:15.637Z,84.53
2018-11-21T04:44:45.329Z,85.05
2018-11-21T04:47:15.287Z,84.86
2018-11-21T04:49:44.961Z,85.04
2018-11-21T04:52:14.695Z,84.55
2018-11-21T04:54:44.357Z,84.98
2018-11-21T04:57:14.058Z,86.13
2018-11-21T04:59:43.717Z,86.43
2018-11-21T05:02:13.648Z,87.14
2018-11-21T05:04:43.330Z,87.03
2018-11-21T05:07:13.016Z,86.96
2018-11-21T05:09:42.979Z,87.62
2018-11-21T05:12:13.672Z,87.16
2018-11-21T05:14:43.334Z,87.22
2018-11-21T05:17:13.272Z,86.93
2018-11-21T05:19:43.024Z,87.42
2018-11-21T05:22:12.943Z,87.41
2018-11-21T05:24:43.184Z,87.32
2018-11-21T05:27:12.840Z,87.27
2018-11-21T05:29:42.524Z,87.47
2018-11-21T05:32:12.328Z,87.83
2018-11-21T05:34:42.330Z,87.74
2018-11-21T05:37:12.497Z,87.78
2018-11-21T05:39:42.194Z,87.60
2018-11-21T05:42:11.834Z,87.34
2018-11-21T05:44:41.514Z,86.99
2018-11-21T05:47:11.184Z,86.93
2018-11-21T05:49:40.865Z,87.41
2018-11-21T05:52:11.011Z,87.62
2018-11-21T05:54:40.723Z,87.32
2018-11-21T05:57:10.386Z,87.92
2018-11-21T05:59:40.315Z,88.28
2018-11-21T06:02:10.533Z,87.35
2018-11-21T06:04:40.247Z,86.96
2018-11-21T06:07:09.889Z,86.61
2018-11-21T06:09:39.975Z,86.80
2018-11-21T06:12:09.630Z,86.33
2018-11-21T06:14:39.533Z,87.01
2018-11-21T06:17:09.445Z,87.05
2018-11-21T06:19:39.380Z,86.02
2018-11-21T06:22:09.032Z,86.32
2018-11-21T06:24:38.697Z,86.41
2018-11-21T06:27:08.388Z,86.41
2018-11-21T06:29:38.058Z,86.56
2018-11-21T06:32:07.927Z,87.23
2018-11-21T06:34:37.899Z,88.08
2018-11-21T06:37:07.551Z,88.15
2018-11-21T06:39:37.228Z,87.76
2018-11-21T06:42:06.901Z,87.66
2018-11-21T06:44:36.575Z,87.91
2018-11-21T06:47:06.370Z,87.65
2018-11-21T06:49:36.027Z,87.54
2018-11-21T06:52:05.785Z,88.22
2018-11-21T06:54:35.464Z,88.37
2018-11-21T06:57:05.235Z,88.62
2018-11-21T06:59:35.169Z,88.82
2018-11-21T07:02:05.413Z,88.46
2018-11-21T07:04:35.063Z,88.96
2018-11-21T07:07:05.091Z,88.74
2018-11-21T07:09:34.989Z,88.32
2018-11-21T07:12:04.866Z,88.29
2018-11-21T07:14:34.526Z,88.75
2018-11-21T07:17:04.221Z,88.85
2018-11-21T07:19:33.872Z,88.78
2018-11-21T07:22:03.884Z,89.12
2018-11-21T07:24:33.557Z,89.27
2018-11-21T07:27:03.520Z,89.29
2018-11-21T07:29:34.689Z,88.10
2018-11-21T07:32:03.341Z,87.43
2018-11-21T07:34:33.383Z,87.30
2018-11-21T07:37:03.321Z,87.32
2018-11-21T07:39:32.974Z,87.13
2018-11-21T07:42:02.930Z,87.21
2018-11-21T07:44:32.573Z,87.07
2018-11-21T07:47:02.252Z,87.24
2018-11-21T07:49:31.906Z,86.72
2018-11-21T07:52:01.729Z,87.11
2018-11-21T07:54:31.369Z,87.35
2018-11-21T07:57:31.435Z,87.36
2018-11-21T08:00:38.586Z,87.41
2018-11-21T08:03:10.938Z,87.09
2018-11-21T08:05:44.321Z,86.97
2018-11-21T08:08:30.540Z,85.56
2018-11-21T08:11:17.858Z,85.28
2018-11-21T08:14:06.673Z,85.36
2018-11-21T08:16:51.143Z,84.72
2018-11-21T08:19:38.419Z,84.17
2018-11-21T08:22:29.728Z,84.25
2018-11-21T08:25:18.814Z,84.02
2018-11-21T08:28:06.544Z,84.31
2018-11-21T08:30:36.680Z,82.91
2018-11-21T08:33:06.381Z,83.00
2018-11-21T08:35:36.078Z,83.50
2018-11-21T08:38:06.168Z,81.96
2018-11-21T08:40:35.854Z,81.83
2018-11-21T08:43:06.471Z,81.39
2018-11-21T08:45:36.203Z,81.43
2018-11-21T08:48:06.594Z,81.29
2018-11-21T08:50:36.286Z,81.51
2018-11-21T08:53:06.611Z,79.20
2018-11-21T08:55:36.727Z,80.53
2018-11-21T08:58:07.088Z,80.80
2018-11-21T09:00:37.236Z,79.06
2018-11-21T09:03:07.299Z,79.42
2018-11-21T09:05:36.969Z,79.09
2018-11-21T09:08:07.709Z,78.67
2018-11-21T09:10:37.620Z,77.86
2018-11-21T09:13:07.546Z,77.99
2018-11-21T09:15:37.202Z,77.75
2018-11-21T09:18:07.145Z,77.37
2018-11-21T09:20:36.837Z,76.64
2018-11-21T09:23:06.505Z,76.36
2018-11-21T09:25:36.652Z,77.02
2018-11-21T09:28:06.315Z,76.76
2018-11-21T09:30:35.950Z,76.71
2018-11-21T09:33:05.731Z,76.64
2018-11-21T09:35:35.529Z,77.65
2018-11-21T09:38:05.346Z,77.38
2018-11-21T09:40:35.031Z,77.50
2018-11-21T09:43:04.956Z,76.99
2018-11-21T09:45:34.641Z,77.04
2018-11-21T09:48:04.635Z,76.45
2018-11-21T09:50:34.808Z,75.94
2018-11-21T09:53:04.573Z,75.59
2018-11-21T09:55:34.493Z,75.14
2018-11-21T09:58:04.210Z,74.43
2018-11-21T10:01:10.134Z,74.96
2018-11-21T10:03:40.242Z,74.08
2018-11-21T10:06:30.223Z,74.40
2018-11-21T10:09:01.727Z,73.87
2018-11-21T10:11:32.495Z,74.18
2018-11-21T10:14:02.164Z,73.93
2018-11-21T10:16:31.814Z,73.32
2018-11-21T10:19:01.672Z,73.16
2018-11-21T10:21:33.011Z,73.43
2018-11-21T10:24:02.678Z,74.17
2018-11-21T10:26:32.340Z,73.64
2018-11-21T10:29:02.042Z,74.11
2018-11-21T10:31:31.947Z,73.21
2018-11-21T10:34:02.174Z,72.55
2018-11-21T10:36:31.847Z,73.60
2018-11-21T10:39:01.847Z,73.79
2018-11-21T10:41:31.518Z,73.94
2018-11-21T10:44:01.406Z,74.22
2018-11-21T10:46:31.075Z,73.87
2018-11-21T10:49:00.799Z,73.58
2018-11-21T10:51:30.445Z,72.47
2018-11-21T10:54:00.132Z,73.00
2018-11-21T10:56:29.770Z,72.71
2018-11-21T10:58:59.497Z,73.13
2018-11-21T11:01:46.921Z,72.79
2018-11-21T11:04:22.155Z,73.35
2018-11-21T11:07:10.130Z,73.69
2018-11-21T11:09:55.261Z,72.54
2018-11-21T11:12:52.791Z,73.27
2018-11-21T11:15:38.920Z,73.59
2018-11-21T11:18:33.704Z,73.27
2018-11-21T11:21:22.142Z,73.22
2018-11-21T11:24:13.527Z,72.82
2018-11-21T11:26:59.914Z,73.55
2018-11-21T11:29:41.005Z,73.41
2018-11-21T11:32:26.860Z,73.70
2018-11-21T11:35:26.897Z,73.83
2018-11-21T11:38:14.121Z,72.93
2018-11-21T11:41:03.168Z,73.65
2018-11-21T11:43:50.453Z,74.03
2018-11-21T11:46:44.935Z,72.95
2018-11-21T11:49:32.377Z,72.07
2018-11-21T11:52:19.981Z,72.37
2018-11-21T11:55:26.617Z,72.87
2018-11-21T11:58:33.340Z,71.99
2018-11-21T12:01:22.172Z,72.34
2018-11-21T12:04:13.851Z,72.97
2018-11-21T12:07:01.736Z,73.07
2018-11-21T12:09:48.936Z,73.50
2018-11-21T12:12:40.160Z,73.06
2018-11-21T12:15:36.990Z,73.59
2018-11-21T12:18:24.188Z,73.70
2018-11-21T12:21:07.516Z,74.20
2018-11-21T12:23:55.264Z,73.62
2018-11-21T12:26:42.811Z,73.06
2018-11-21T12:29:31.244Z,73.61
2018-11-21T12:32:14.004Z,73.25
2018-11-21T12:35:02.774Z,73.78
2018-11-21T12:37:50.050Z,72.72
2018-11-21T12:40:40.226Z,72.56
2018-11-21T12:43:44.250Z,72.91
2018-11-21T12:46:33.043Z,73.12
2018-11-21T12:49:20.306Z,72.69
2018-11-21T12:52:06.274Z,73.38
2018-11-21T12:55:00.930Z,73.62
2018-11-21T12:58:07.777Z,73.14
2018-11-21T13:00:55.163Z,73.18
2018-11-21T13:03:42.294Z,73.63
2018-11-21T13:06:33.815Z,73.78
2018-11-21T13:09:14.645Z,72.67
2018-11-21T13:12:15.618Z,73.41
2018-11-21T13:15:02.665Z,72.66
2018-11-21T13:17:50.550Z,73.42
2018-11-21T13:20:31.951Z,73.67
2018-11-21T13:23:20.746Z,74.48
2018-11-21T13:26:09.547Z,73.79
2018-11-21T13:28:55.756Z,74.46
2018-11-21T13:31:43.009Z,74.01
2018-11-21T13:34:30.598Z,74.21
2018-11-21T13:37:25.403Z,74.24
2018-11-21T13:40:13.218Z,73.73
2018-11-21T13:42:59.645Z,74.25
2018-11-21T13:45:47.107Z,73.91
2018-11-21T13:48:34.750Z,74.21
2018-11-21T13:51:39.189Z,74.01
2018-11-21T13:54:26.767Z,73.04
2018-11-21T13:56:56.458Z,73.06
2018-11-21T13:59:26.173Z,73.30
2018-11-21T14:01:55.930Z,73.71
2018-11-21T14:04:26.051Z,73.49
2018-11-21T14:06:55.725Z,73.51
2018-11-21T14:09:25.375Z,73.39
2018-11-21T14:11:55.062Z,73.48
2018-11-21T14:14:24.720Z,73.74
2018-11-21T14:16:54.626Z,73.53
2018-11-21T14:19:24.532Z,73.84
2018-11-21T14:21:55.924Z,73.17
2018-11-21T14:24:24.062Z,74.18
2018-11-21T14:26:53.718Z,73.44
2018-11-21T14:29:23.643Z,73.95
2018-11-21T14:31:53.315Z,74.07
2018-11-21T14:34:23.804Z,74.02
2018-11-21T14:36:54.164Z,73.53
2018-11-21T14:39:24.362Z,73.95
2018-11-21T14:41:54.030Z,74.14
2018-11-21T14:44:23.694Z,73.33
2018-11-21T14:46:54.667Z,73.98
2018-11-21T14:49:24.347Z,73.92
2018-11-21T14:51:54.012Z,73.21
2018-11-21T14:54:24.479Z,74.02
2018-11-21T14:56:54.146Z,73.87
2018-11-21T14:59:24.369Z,73.71
2018-11-21T15:01:54.056Z,73.75
2018-11-21T15:04:23.723Z,74.04
2018-11-21T15:06:53.371Z,74.27
2018-11-21T15:09:23.356Z,74.78
2018-11-21T15:11:53.589Z,74.93
2018-11-21T15:14:23.509Z,74.59
2018-11-21T15:16:53.171Z,74.55
2018-11-21T15:19:22.869Z,73.75
2018-11-21T15:21:52.845Z,74.17
2018-11-21T15:24:22.804Z,74.52
2018-11-21T15:26:52.479Z,74.35
2018-11-21T15:29:22.392Z,75.00
2018-11-21T15:31:52.042Z,75.19
2018-11-21T15:34:21.736Z,75.33
2018-11-21T15:36:51.389Z,75.43
2018-11-21T15:39:21.069Z,75.79
2018-11-21T15:41:50.739Z,75.08
2018-11-21T15:44:20.649Z,75.62
2018-11-21T15:46:50.616Z,74.99
2018-11-21T15:49:20.303Z,75.42
2018-11-21T15:51:49.962Z,75.43
2018-11-21T15:54:20.470Z,75.71
2018-11-21T15:56:50.400Z,75.02
2018-11-21T15:59:20.078Z,75.25
2018-11-21T16:01:49.742Z,75.44
2018-11-21T16:04:19.735Z,75.11
2018-11-21T16:06:49.652Z,75.66
2018-11-21T16:09:19.330Z,75.92
2018-11-21T16:11:49.020Z,75.60
2018-11-21T16:14:18.725Z,76.18
2018-11-21T16:16:48.391Z,76.11
2018-11-21T16:19:18.052Z,75.18
2018-11-21T16:21:47.741Z,75.52
2018-11-21T16:24:18.161Z,75.72
2018-11-21T16:26:47.813Z,76.37
2018-11-21T16:29:17.808Z,75.66
2018-11-21T16:31:47.979Z,75.88
2018-11-21T16:34:17.940Z,75.89
2018-11-21T16:36:47.598Z,75.74
2018-11-21T16:39:18.264Z,75.96
2018-11-21T16:41:47.945Z,75.26
2018-11-21T16:44:17.646Z,76.33
2018-11-21T16:46:47.615Z,75.48
2018-11-21T16:49:17.299Z,75.44
2018-11-21T16:51:46.949Z,75.07
2018-11-21T16:54:16.610Z,75.11
2018-11-21T16:56:46.493Z,75.39
2018-11-21T16:59:16.173Z,75.91
2018-11-21T17:01:45.823Z,75.88
2018-11-21T17:04:15.485Z,76.57
2018-11-21T17:06:45.179Z,76.52
2018-11-21T17:09:14.866Z,75.83
2018-11-21T17:11:44.551Z,75.30
2018-11-21T17:14:14.255Z,75.77
2018-11-21T17:16:43.935Z,75.61
2018-11-21T17:19:13.616Z,76.14
2018-11-21T17:21:43.300Z,75.90
2018-11-21T17:24:13.018Z,76.37
2018-11-21T17:26:42.672Z,76.48
2018-11-21T17:29:13.084Z,76.13
2018-11-21T17:31:42.753Z,76.80
2018-11-21T17:34:12.661Z,76.43
2018-11-21T17:36:42.353Z,76.15
2018-11-21T17:39:13.135Z,76.12
2018-11-21T17:41:42.921Z,75.40
2018-11-21T17:44:13.903Z,75.74
2018-11-21T17:46:43.894Z,75.99
2018-11-21T17:49:13.582Z,76.59
2018-11-21T17:51:43.258Z,76.01
2018-11-21T17:54:12.899Z,76.12
2018-11-21T17:56:42.819Z,76.42
2018-11-21T17:59:12.608Z,75.94
2018-11-21T18:01:42.303Z,76.78
2018-11-21T18:04:12.031Z,77.59
2018-11-21T18:06:41.658Z,77.10
2018-11-21T18:09:12.601Z,77.11
2018-11-21T18:11:42.639Z,76.53
2018-11-21T18:14:12.303Z,77.34
2018-11-21T18:16:41.992Z,77.01
2018-11-21T18:19:11.649Z,77.29
2018-11-21T18:21:41.331Z,77.35
2018-11-21T18:24:10.977Z,77.52
2018-11-21T18:26:40.647Z,77.69
2018-11-21T18:29:11.701Z,77.56
2018-11-21T18:31:40.240Z,77.51
2018-11-21T18:34:09.983Z,77.77
2018-11-21T18:36:39.693Z,78.37
2018-11-21T18:39:10.775Z,77.90
2018-11-21T18:41:40.726Z,78.35
2018-11-21T18:44:10.521Z,77.96
2018-11-21T18:46:40.467Z,77.76
2018-11-21T18:49:10.121Z,78.22
2018-11-21T18:51:39.826Z,78.62
2018-11-21T18:54:09.555Z,79.06
2018-11-21T18:57:04.387Z,79.12
2018-11-21T18:59:51.218Z,79.61
2018-11-21T19:02:20.894Z,79.83
2018-11-21T19:04:50.576Z,79.47
2018-11-21T19:07:20.274Z,79.55
2018-11-21T19:09:50.214Z,79.69
2018-11-21T19:12:19.921Z,79.39
2018-11-21T19:14:49.881Z,79.72
2018-11-21T19:17:19.581Z,80.16
2018-11-21T19:19:49.231Z,80.32
2018-11-21T19:22:19.141Z,80.21
2018-11-21T19:24:48.791Z,80.17
2018-11-21T19:27:18.469Z,80.19
2018-11-21T19:29:48.382Z,80.36
2018-11-21T19:32:18.066Z,80.31
2018-11-21T19:34:47.744Z,80.45
2018-11-21T19:37:18.183Z,80.59
2018-11-21T19:39:47.839Z,80.72
2018-11-21T19:42:20.288Z,80.62
2018-11-21T19:44:47.257Z,80.34
2018-11-21T19:47:17.185Z,80.17
2018-11-21T19:49:47.231Z,79.82
2018-11-21T19:52:17.150Z,81.03
2018-11-21T19:54:46.823Z,81.25
2018-11-21T19:57:16.793Z,80.79
2018-11-21T19:59:46.460Z,80.75
2018-11-21T20:02:16.331Z,81.04
2018-11-21T20:04:45.998Z,81.01
